Latest Weather Observations for Roseworthy

IDS60801

Issued at 5:11 pm CST Sunday 15 September 2019 (issued every 10 minutes, with the page automatically refreshed every 10 minutes)

About weather observations | Map of weather stations | Latest weather observations for SA | Other Formats
Station Details ID: 023122 Name: ROSEWORTHY AWS Lat: -34.51 Lon: 138.68 Height: 65.0 m
Data from the previous 72 hours. | See also: Recent months at Roseworthy
Date/Time
CST
Temp
°C
App
Temp
°C
Dew
Point
°C
Rel
Hum
%
Delta-T
°C
Wind Press
QNH
hPa
Press
MSL
hPa
Rain since
9am
mm
Dir  Spd
km/h
Gust
km/h
Spd
kts
Gust
kts
15/05:00pm 25.6 22.3 8.1 33 9.4 SSW 15 20 8 11 1015.1 1015.1 0.0
15/04:30pm 28.2 25.3 6.3 25 11.6 WNW 11 15 6 8 1014.9 1014.9 0.0
15/04:00pm 27.9 23.5 4.9 23 11.8 NW 17 24 9 13 1014.9 1014.9 0.0
15/03:30pm 28.1 21.0 3.7 21 12.3 NNW 30 41 16 22 1014.8 1014.8 0.0
15/03:00pm 29.4 22.0 4.1 20 12.9 NW 32 44 17 24 1014.8 1014.8 0.0
15/02:30pm 29.6 22.1 4.3 20 13.0 NW 33 50 18 27 1015.1 1015.1 0.0
15/02:00pm 29.2 21.7 4.6 21 12.7 NNW 33 46 18 25 1015.3 1015.3 0.0
15/01:38pm 28.9 21.0 4.4 21 12.6 NW 35 54 19 29 1015.5 1015.5 0.0
15/01:30pm 29.1 20.4 3.9 20 12.8 NNW 39 54 21 29 1015.5 1015.5 0.0
15/01:00pm 29.8 22.4 5.1 21 12.9 NW 33 44 18 24 1016.1 1016.1 0.0
15/12:30pm 29.4 23.1 5.5 22 12.5 NW 28 39 15 21 1017.0 1017.0 0.0
15/12:00pm 27.8 22.2 5.4 24 11.6 NW 24 33 13 18 1018.0 1018.0 0.0
15/11:30am 26.1 21.6 6.2 28 10.3 NW 19 24 10 13 1018.7 1018.7 0.0
15/11:00am 24.5 19.0 5.8 30 9.6 NW 24 33 13 18 1019.5 1019.5 0.0
15/10:30am 25.9 21.1 5.5 27 10.4 W 20 35 11 19 1019.8 1019.8 0.0
15/10:00am 25.0 20.1 6.7 31 9.5 WNW 22 30 12 16 1020.1 1020.1 0.0
15/09:30am 24.8 19.0 6.1 30 9.6 NW 26 35 14 19 1020.0 1020.0 0.0
15/09:00am 24.9 19.7 7.1 32 9.3 NNW 24 35 13 19 1019.7 1019.7 0.0
15/08:30am 23.6 19.6 6.8 34 8.7 NNW 17 28 9 15 1019.6 1019.6 0.0
15/08:00am 21.9 18.6 8.1 41 7.2 NW 15 24 8 13 1019.5 1019.5 0.0
15/07:51am 21.2 17.5 8.1 43 6.9 N 17 26 9 14 1019.0 1019.0 0.0
15/07:30am 16.2 14.7 10.5 69 3.0 NE 9 11 5 6 1019.1 1019.1 0.0
15/07:00am 14.0 11.6 8.6 70 2.7 SSW 11 13 6 7 1019.0 1019.0 0.0
15/06:30am 13.8 11.1 7.3 65 3.2 N 11 13 6 7 1018.0 1018.0 0.0
15/06:00am 15.3 11.8 7.1 58 4.0 N 15 19 8 10 1018.1 1018.1 0.0
15/05:30am 16.5 12.7 7.4 55 4.5 N 17 20 9 11 1017.8 1017.8 0.0
15/05:00am 17.1 13.0 7.7 54 4.8 N 19 24 10 13 1017.5 1017.5 0.0
15/04:30am 16.9 12.6 7.8 55 4.6 N 20 22 11 12 1017.3 1017.3 0.0
15/04:00am 17.3 13.3 8.2 55 4.7 NNE 19 24 10 13 1017.2 1017.2 0.0
15/03:30am 16.7 12.7 8.1 57 4.4 N 19 20 10 11 1017.5 1017.5 0.0
15/03:00am 16.8 12.8 8.2 57 4.4 N 19 20 10 11 1017.9 1017.9 0.0
15/02:30am 18.6 15.2 9.1 54 5.0 N 17 20 9 11 1018.1 1018.1 0.0
15/02:00am 17.2 15.1 9.6 61 4.0 NNE 11 15 6 8 1018.7 1018.7 0.0
15/01:30am 15.5 15.1 9.8 69 3.0 NNW 2 7 1 4 1019.2 1019.2 0.0
15/01:00am 14.9 12.7 9.5 70 2.8 NE 11 13 6 7 1019.4 1019.4 0.0
15/12:30am 16.7 15.4 9.9 64 3.6 NE 7 11 4 6 1019.7 1019.7 0.0
15/12:00am 16.8 13.3 10.2 65 3.5 NE 19 22 10 12 1019.2 1019.2 0.0
 
Date/Time
CST
Temp
°C
App
Temp
°C
Dew
Point
°C
Rel
Hum
%
Delta-T
°C
Wind Press
QNH
hPa
Press
MSL
hPa
Rain since
9am
mm
Dir  Spd
km/h
Gust
km/h
Spd
kts
Gust
kts
14/11:30pm 17.1 13.5 10.5 65 3.5 NE 20 24 11 13 1019.5 1019.5 0.0
14/11:00pm 16.3 12.7 10.6 69 3.0 NE 20 22 11 12 1020.0 1020.0 0.0
14/10:30pm 16.7 13.7 10.5 67 3.3 NE 17 20 9 11 1020.6 1020.6 0.0
14/10:00pm 17.3 13.9 10.7 65 3.5 NE 19 20 10 11 1021.0 1021.0 0.0
14/09:30pm 17.3 14.4 10.9 66 3.4 NE 17 19 9 10 1021.6 1021.6 0.0
14/09:00pm 17.5 14.2 10.9 65 3.5 NE 19 20 10 11 1022.1 1022.1 0.0
14/08:30pm 16.9 14.3 10.7 67 3.3 NE 15 19 8 10 1022.1 1022.1 0.0
14/08:00pm 15.8 13.0 11.2 74 2.5 NE 17 17 9 9 1022.2 1022.2 0.0
14/07:30pm 13.8 11.1 10.4 80 1.8 NE 15 17 8 9 1022.2 1022.2 0.0
14/07:00pm 13.5 11.8 9.9 79 1.9 E 9 11 5 6 1022.1 1022.1 0.0
14/06:30pm 14.9 12.9 10.3 74 2.4 E 11 11 6 6 1021.9 1021.9 0.0
14/06:00pm 19.0 18.5 10.8 59 4.4 SSE 4 7 2 4 1022.1 1022.1 0.0
14/05:59pm 19.4 18.9 10.7 57 4.7 SSE 4 7 2 4 1022.1 1022.1 0.0
14/05:30pm 24.6 23.7 11.2 43 7.5 S 7 9 4 5 1021.9 1021.9 0.0
14/05:00pm 26.3 24.3 10.0 36 9.1 SSW 11 17 6 9 1021.9 1021.9 0.0
14/04:30pm 26.9 24.6 10.6 36 9.2 SW 13 20 7 11 1021.8 1021.8 0.0
14/04:00pm 26.8 23.3 10.1 35 9.3 SW 19 24 10 13 1021.9 1021.9 0.0
14/03:30pm 27.2 22.9 10.8 36 9.3 SW 24 30 13 16 1021.8 1021.8 0.0
14/03:00pm 28.8 25.7 9.0 29 10.9 NNW 15 24 8 13 1021.8 1021.8 0.0
14/02:30pm 29.2 26.8 9.9 30 10.8 NW 13 20 7 11 1022.1 1022.1 0.0
14/02:00pm 28.5 26.8 9.7 31 10.5 NW 9 15 5 8 1022.3 1022.3 0.0
14/01:30pm 28.0 26.2 10.7 34 9.8 NNE 11 19 6 10 1022.6 1022.6 0.0
14/01:00pm 27.2 24.8 10.0 34 9.6 NNW 13 20 7 11 1023.2 1023.2 0.0
14/12:30pm 27.7 25.2 10.9 35 9.5 NW 15 28 8 15 1023.5 1023.5 0.0
14/12:00pm 26.7 24.7 10.0 35 9.3 N 11 22 6 12 1024.1 1024.1 0.0
14/11:30am 25.7 22.6 10.3 38 8.6 N 17 22 9 12 1024.6 1024.6 0.0
14/11:00am 25.1 21.7 10.6 40 8.1 N 19 28 10 15 1024.6 1024.6 0.0
14/10:30am 24.0 21.2 11.3 45 7.1 NNE 17 26 9 14 1025.0 1025.0 0.0
14/10:00am 22.5 20.5 11.6 50 6.1 NNE 13 17 7 9 1025.4 1025.4 0.0
14/09:30am 19.7 17.7 11.5 59 4.5 NE 13 17 7 9 1026.1 1026.1 0.0
14/09:00am 17.2 15.3 10.6 65 3.5 ENE 11 15 6 8 1026.5 1026.5 0.0
14/08:30am 15.6 13.1 9.7 68 3.1 NNE 13 17 7 9 1026.5 1026.5 0.0
14/08:00am 12.7 9.6 9.0 78 1.9 NE 15 20 8 11 1026.6 1026.6 0.0
14/07:30am 11.0 8.2 8.4 84 1.3 NE 13 15 7 8 1026.5 1026.5 0.0
14/07:00am 9.0 6.0 7.5 90 0.7 NE 13 17 7 9 1026.6 1026.6 0.0
14/06:30am 7.9 4.6 6.5 91 0.6 ENE 13 15 7 8 1026.3 1026.3 0.0
14/06:00am 7.8 4.2 6.6 92 0.5 ENE 15 17 8 9 1026.1 1026.1 0.0
14/05:30am 7.0 3.3 6.1 94 0.4 ENE 15 17 8 9 1026.0 1026.0 0.0
14/05:00am 6.8 3.4 6.1 95 0.3 ENE 13 15 7 8 1026.1 1026.1 0.0
14/04:30am 5.3 2.0 4.7 96 0.3 ENE 11 13 6 7 1026.2 1026.2 0.0
14/04:00am 5.2 1.9 4.8 97 0.2 NE 11 13 6 7 1026.4 1026.4 0.0
14/03:30am 5.0 1.7 4.4 96 0.3 NE 11 13 6 7 1026.5 1026.5 0.0
14/03:00am 5.2 1.6 4.9 98 0.1 NE 13 13 7 7 1026.7 1026.8 0.0
14/02:30am 5.5 2.0 5.4 99 0.0 NE 13 15 7 8 1027.0 1027.1 0.0
14/02:00am 5.4 1.9 5.3 99 0.0 NE 13 15 7 8 1027.3 1027.4 0.0
14/01:30am 4.1 0.6 3.5 96 0.2 NE 11 13 6 7 1027.5 1027.6 0.0
14/01:00am 4.4 1.3 3.7 95 0.3 NE 9 11 5 6 1027.8 1027.9 0.0
14/12:30am 5.6 2.4 5.2 97 0.2 NNE 11 13 6 7 1027.9 1028.0 0.0
14/12:00am 5.3 2.1 4.9 97 0.2 NNE 11 11 6 6 1028.0 1028.1 0.0
 
Date/Time
CST
Temp
°C
App
Temp
°C
Dew
Point
°C
Rel
Hum
%
Delta-T
°C
Wind Press
QNH
hPa
Press
MSL
hPa
Rain since
9am
mm
Dir  Spd
km/h
Gust
km/h
Spd
kts
Gust
kts
13/11:30pm 5.3 2.0 4.7 96 0.3 NE 11 11 6 6 1027.9 1028.0 0.0
13/11:00pm 5.7 2.5 5.1 96 0.3 NE 11 13 6 7 1028.0 1028.1 0.0
13/10:30pm 6.0 2.9 5.4 96 0.3 NNE 11 13 6 7 1028.0 1028.1 0.0
13/10:00pm 6.2 3.5 5.5 95 0.3 N 9 9 5 5 1028.0 1028.1 0.0
13/09:30pm 6.5 3.8 5.5 93 0.4 N 9 9 5 5 1028.0 1028.1 0.0
13/09:00pm 7.1 4.6 6.4 95 0.3 N 9 11 5 6 1027.8 1027.9 0.0
13/08:30pm 7.1 5.0 5.9 92 0.5 N 6 9 3 5 1027.6 1027.7 0.0
13/08:00pm 7.5 6.5 5.8 89 0.8 CALM 0 0 0 0 1027.5 1027.6 0.0
13/07:30pm 8.3 7.1 6.4 88 0.9 NNW 2 6 1 3 1027.3 1027.4 0.0
13/07:00pm 11.0 9.9 8.4 84 1.3 WSW 4 7 2 4 1027.1 1027.2 0.0
13/06:30pm 11.3 9.2 6.8 74 2.1 W 7 9 4 5 1026.8 1026.9 0.0
13/06:00pm 14.3 13.6 8.7 69 2.8 SW 2 6 1 3 1026.6 1026.6 0.0
13/05:30pm 16.3 14.5 9.3 63 3.6 SW 9 11 5 6 1026.6 1026.6 0.0
13/05:00pm 17.1 14.4 9.0 59 4.2 WSW 13 17 7 9 1026.6 1026.6 0.0
13/04:30pm 18.1 15.7 10.0 59 4.3 SW 13 17 7 9 1026.5 1026.5 0.0
13/04:00pm 18.0 14.8 10.1 60 4.2 SW 17 24 9 13 1026.5 1026.5 0.0
13/03:30pm 18.1 15.4 10.2 60 4.2 SSW 15 22 8 12 1026.4 1026.4 0.0
13/03:00pm 17.8 15.5 10.4 62 3.9 SW 13 19 7 10 1026.3 1026.3 0.0
13/02:30pm 18.6 16.1 11.2 62 4.0 SW 15 24 8 13 1026.4 1026.4 0.0
13/02:00pm 18.1 15.7 11.4 65 3.7 SW 15 20 8 11 1026.3 1026.3 0.0
13/01:30pm 17.4 14.9 11.0 66 3.4 WSW 15 20 8 11 1026.4 1026.4 0.0
13/01:00pm 17.6 15.0 12.1 70 3.0 SW 17 22 9 12 1026.6 1026.6 0.0
13/12:30pm 16.5 14.9 11.4 72 2.7 SW 11 17 6 9 1026.7 1026.8 0.0
13/12:00pm 15.0 13.4 11.6 80 1.8 SW 11 17 6 9 1027.2 1027.3 0.0
13/11:30am 15.1 13.1 11.5 79 1.9 SW 13 20 7 11 1027.4 1027.5 0.0
13/11:00am 13.8 13.8 11.3 85 1.3 SE 2 7 1 4 1027.1 1027.2 0.0
13/10:30am 12.3 11.9 11.0 92 0.7 WSW 4 7 2 4 1027.4 1027.5 0.0
13/10:00am 11.2 11.5 11.0 99 0.1 CALM 0 6 0 3 1028.0 1028.1 0.0
13/09:30am 10.7 - - - - NE 7 11 4 6 1027.4 1027.5 0.0
13/09:00am 9.9 - - - - CALM 0 0 0 0 1027.8 1027.9 0.0
13/08:30am 9.2 - - - - CALM 0 0 0 0 1027.6 1027.7 0.0
13/08:00am 8.0 - - - - CALM 0 0 0 0 1027.2 1027.3 0.0
13/07:30am 6.4 5.6 6.4 100 0.0 CALM 0 0 0 0 1026.8 1026.9 0.0
13/07:00am 3.6 1.1 3.6 100 0.0 WSW 6 6 3 3 1026.4 1026.4 0.0
13/06:30am 2.0 0.3 1.7 98 0.1 CALM 0 0 0 0 1025.7 1025.7 0.0
13/06:00am 2.0 -1.1 1.6 97 0.2 ENE 7 9 4 5 1025.2 1025.2 0.0
13/05:30am 3.6 2.2 3.6 100 0.0 CALM 0 0 0 0 1025.1 1025.1 0.0
13/05:00am 4.4 2.0 4.3 99 0.0 NNE 6 7 3 4 1024.9 1024.9 0.0
13/04:30am 4.9 2.4 4.8 99 0.0 NNE 7 11 4 6 1024.9 1024.9 0.0
13/04:00am 5.0 1.8 4.9 99 0.0 NE 11 13 6 7 1024.9 1024.9 0.0
13/03:30am 4.9 1.3 4.9 100 0.0 NE 13 15 7 8 1024.9 1024.9 0.0
13/03:00am 5.5 2.0 5.5 100 0.0 NE 13 17 7 9 1024.9 1024.9 0.0
13/02:30am 4.1 0.3 4.0 99 0.0 NE 13 15 7 8 1024.9 1024.9 0.0
13/02:00am 4.6 1.7 4.5 99 0.0 ENE 9 9 5 5 1025.3 1025.3 0.0
13/01:30am 5.3 2.1 5.3 100 0.0 E 11 13 6 7 1025.5 1025.5 0.0
13/01:00am 5.9 3.3 5.9 100 0.0 ENE 9 11 5 6 1025.9 1025.9 0.0
13/12:30am 5.0 2.5 5.0 100 0.0 NE 7 9 4 5 1026.1 1026.1 0.0
13/12:00am 5.6 2.9 5.6 100 0.0 NNW 9 22 5 12 1025.9 1025.9 0.0
 
Date/Time
CST
Temp
°C
App
Temp
°C
Dew
Point
°C
Rel
Hum
%
Delta-T
°C
Wind Press
QNH
hPa
Press
MSL
hPa
Rain since
9am
mm
Dir  Spd
km/h
Gust
km/h
Spd
kts
Gust
kts
12/11:30pm 6.1 3.9 6.1 100 0.0 ENE 7 9 4 5 1025.3 1025.3 0.0
12/11:00pm 7.0 5.0 7.0 100 0.0 ENE 7 9 4 5 1025.1 1025.1 0.0
12/10:30pm 6.2 3.2 6.2 100 0.0 ENE 11 15 6 8 1025.0 1025.0 0.0
12/10:00pm 5.9 2.4 5.6 98 0.1 ENE 13 15 7 8 1024.9 1024.9 0.0
12/09:30pm 6.1 2.7 5.7 97 0.2 ENE 13 17 7 9 1025.2 1025.2 0.0
12/09:00pm 6.7 3.8 6.4 98 0.1 NNE 11 13 6 7 1025.7 1025.7 0.0
12/08:30pm 6.9 4.7 6.3 96 0.3 N 7 9 4 5 1025.7 1025.7 0.0
12/08:00pm 6.6 3.9 5.7 94 0.4 NE 9 11 5 6 1025.5 1025.5 0.0
12/07:30pm 8.9 8.4 7.8 93 0.5 CALM 0 0 0 0 1025.3 1025.3 0.0
12/07:00pm 10.0 9.8 9.2 95 0.4 CALM 0 0 0 0 1024.8 1024.8 0.0
12/06:30pm 11.3 9.5 9.6 89 0.9 WSW 9 9 5 5 1024.6 1024.6 0.0
12/06:00pm 13.6 12.1 10.6 82 1.6 WSW 9 11 5 6 1024.1 1024.1 0.0
12/05:30pm 16.1 14.0 11.3 73 2.6 WSW 13 17 7 9 1023.8 1023.8 0.0

Other formats

Comma delimited format used in spreadsheet applications
http://www.bom.gov.au/fwo/IDS60801/IDS60801.95671.axf

JavaScript Object Notation format (JSON) in row-major order
http://www.bom.gov.au/fwo/IDS60801/IDS60801.95671.json

Data quality

Most of these data are generated automatically and are frequently updated. Quality checks on data are not normally performed. It is possible for incorrect values to appear. Refer to information at About Latest Weather Observations and please check the disclaimer before using these data.